Time;durP1;ratioP1;P1;durP2;ratioP2;P2;SDS_P1;SDS_P2;PMS_P1;PMS_P2;Temp;Humidity;BMP_temperature;BMP_pressure;BME280_temperature;BME280_humidity;BME280_pressure;Samples;Min_cycle;Max_cycle;Signal;HPM_P1;HPM_P2
2021/04/08 00:01:55;;;;;;;47.45;24.65;;;;;;;30.46;54.90;100993.91;4799682;29;69280;-38
2021/04/08 00:04:25;;;;;;;47.63;25.45;;;;;;;30.50;55.65;101003.25;4794028;29;65330;-38
2021/04/08 00:06:54;;;;;;;55.88;26.50;;;;;;;30.50;56.54;101002.41;4796289;29;70109;-39
2021/04/08 00:09:27;;;;;;;60.22;26.67;;;;;;;30.49;56.92;100998.88;4803303;29;65441;-40
2021/04/08 00:11:57;;;;;;;53.30;27.42;;;;;;;30.55;57.56;101010.72;4801513;29;69021;-38
2021/04/08 00:14:29;;;;;;;52.88;26.40;;;;;;;30.61;57.42;101012.56;4792212;29;65052;-38
2021/04/08 00:16:59;;;;;;;51.55;26.95;;;;;;;30.68;56.63;101007.13;4801212;29;70154;-40
2021/04/08 00:19:29;;;;;;;50.75;27.15;;;;;;;30.61;57.07;101007.16;4791227;29;66498;-37
2021/04/08 00:21:58;;;;;;;50.13;27.15;;;;;;;30.66;57.19;101017.34;4804617;29;69720;-39
2021/04/08 00:24:28;;;;;;;58.22;26.10;;;;;;;30.65;57.42;101019.22;4796676;29;65425;-38
2021/04/08 00:26:57;;;;;;;46.85;25.90;;;;;;;30.64;58.08;101024.84;4795903;29;70012;-39
2021/04/08 00:29:27;;;;;;;47.38;27.38;;;;;;;30.68;58.16;101029.63;4797423;29;66431;-39
2021/04/08 00:31:57;;;;;;;54.72;27.27;;;;;;;30.71;58.47;101036.50;4801982;29;70166;-40
2021/04/08 00:34:26;;;;;;;42.72;26.38;;;;;;;30.77;58.45;101042.91;4794979;29;65960;-39
2021/04/08 00:36:56;;;;;;;50.58;26.73;;;;;;;30.88;57.49;101053.09;4795958;29;70293;-39
2021/04/08 00:39:25;;;;;;;48.83;28.85;;;;;;;30.92;58.43;101057.03;4793849;29;66039;-39
2021/04/08 00:41:55;;;;;;;42.33;28.23;;;;;;;30.97;57.93;101059.09;4793984;29;69843;-39
2021/04/08 00:44:25;;;;;;;47.80;30.85;;;;;;;31.02;57.15;101057.41;4805509;29;66331;-40
2021/04/08 00:46:54;;;;;;;59.55;32.55;;;;;;;31.08;57.10;101067.34;4798203;29;70036;-39
2021/04/08 00:49:24;;;;;;;43.78;30.88;;;;;;;31.08;57.10;101061.94;4802914;29;66259;-39
2021/04/08 00:51:54;;;;;;;51.03;31.63;;;;;;;31.18;56.45;101077.75;4800961;29;69912;-38
2021/04/08 00:54:23;;;;;;;48.20;30.63;;;;;;;31.13;56.25;101081.09;4800363;29;66222;-38
2021/04/08 00:56:53;;;;;;;51.72;32.35;;;;;;;31.14;56.43;101085.44;4801245;29;69358;-39
2021/04/08 00:59:26;;;;;;;51.08;30.98;;;;;;;31.16;56.02;101091.50;4797256;29;66641;-39
2021/04/08 01:01:56;;;;;;;46.72;30.20;;;;;;;31.19;56.05;101102.94;4791984;29;70254;-39
2021/04/08 01:04:25;;;;;;;46.88;31.25;;;;;;;31.19;56.01;101095.66;4795990;29;66174;-41
2021/04/08 01:06:55;;;;;;;49.58;31.08;;;;;;;31.22;55.78;101094.38;4803281;29;70035;-40
2021/04/08 01:09:24;;;;;;;54.65;30.98;;;;;;;31.23;55.94;101090.63;4802148;29;66212;-39
2021/04/08 01:11:54;;;;;;;44.30;28.48;;;;;;;31.26;55.58;101101.03;4796754;29;69187;-39
2021/04/08 01:14:26;;;;;;;45.00;27.88;;;;;;;31.24;56.01;101095.00;4799640;29;65894;-39
2021/04/08 01:17:06;;;;;;;38.38;27.40;;;;;;;31.11;55.95;101083.19;4800165;29;69515;-39
2021/04/08 01:20:04;;;;;;;40.30;28.08;;;;;;;31.15;55.94;101089.84;4796861;29;66221;-40
2021/04/08 01:22:58;;;;;;;41.05;28.17;;;;;;;31.35;55.74;101107.88;4800269;29;69089;-39
2021/04/08 01:26:04;;;;;;;35.20;26.35;;;;;;;31.09;55.57;101079.88;4800102;29;66219;-41
2021/04/08 01:28:37;;;;;;;39.35;26.63;;;;;;;31.20;55.31;101085.63;4801000;29;69365;-40
2021/04/08 01:31:12;;;;;;;42.00;27.35;;;;;;;31.39;55.56;101111.81;4798117;29;65985;-39
2021/04/08 01:33:55;;;;;;;39.65;26.55;;;;;;;31.43;55.45;101121.19;4795565;29;70107;-39
2021/04/08 01:36:30;;;;;;;37.33;24.98;;;;;;;31.46;55.73;101128.06;4800272;29;66970;-39
2021/04/08 01:39:04;;;;;;;39.88;24.83;;;;;;;31.45;55.50;101132.63;4793393;29;70273;-39
2021/04/08 01:41:37;;;;;;;34.75;24.60;;;;;;;31.47;55.19;101125.13;4800768;29;66750;-40
2021/04/08 01:44:14;;;;;;;31.75;24.05;;;;;;;31.52;54.92;101132.59;4797860;29;69017;-38
2021/04/08 01:46:48;;;;;;;43.85;25.88;;;;;;;31.48;55.02;101113.25;4799341;29;65969;-40
2021/04/08 01:49:22;;;;;;;34.63;24.58;;;;;;;31.53;54.75;101117.97;4796072;29;69286;-39
2021/04/08 01:51:56;;;;;;;35.35;24.52;;;;;;;31.51;54.61;101115.50;4798231;29;66483;-40
2021/04/08 01:54:29;;;;;;;40.08;25.27;;;;;;;31.60;54.81;101124.22;4797837;29;70442;-39
2021/04/08 01:57:06;;;;;;;35.72;23.90;;;;;;;31.47;54.64;101105.31;4798125;29;66100;-39
2021/04/08 01:59:47;;;;;;;31.48;23.17;;;;;;;31.60;54.52;101119.59;4803417;29;69803;-39
2021/04/08 02:02:18;;;;;;;33.85;24.65;;;;;;;31.69;54.18;101132.91;4800162;29;65659;-39
2021/04/08 02:04:48;;;;;;;33.35;23.25;;;;;;;31.69;54.40;101127.47;4802948;29;69862;-40
2021/04/08 02:07:20;;;;;;;36.17;23.42;;;;;;;31.74;54.44;101133.91;4791670;29;65365;-39
2021/04/08 02:09:51;;;;;;;29.73;21.35;;;;;;;31.65;54.12;101116.25;4795446;29;70705;-39
2021/04/08 02:12:23;;;;;;;33.22;22.77;;;;;;;31.74;53.98;101127.66;4800421;29;65968;-40
2021/04/08 02:14:57;;;;;;;31.10;21.67;;;;;;;31.81;54.07;101136.56;4809356;29;70152;-40
2021/04/08 02:17:28;;;;;;;35.58;22.67;;;;;;;31.78;53.68;101115.28;4794403;29;66101;-38
2021/04/08 02:20:00;;;;;;;27.38;21.55;;;;;;;31.87;53.99;101124.81;4802383;29;69793;-39
2021/04/08 02:22:30;;;;;;;29.83;21.73;;;;;;;31.91;53.51;101128.78;4798792;29;65560;-39
2021/04/08 02:25:02;;;;;;;28.55;21.27;;;;;;;31.91;53.64;101126.06;4795543;29;70243;-39
2021/04/08 02:27:37;;;;;;;39.25;22.80;;;;;;;31.95;53.29;101126.44;4799511;29;65133;-39
2021/04/08 02:30:09;;;;;;;27.92;22.13;;;;;;;31.96;53.19;101122.72;4800773;29;69931;-40
2021/04/08 02:32:42;;;;;;;36.08;22.45;;;;;;;32.02;53.15;101130.78;4799590;29;65939;-39
2021/04/08 02:35:17;;;;;;;27.80;20.92;;;;;;;32.05;53.23;101130.31;4799560;29;70776;-40
2021/04/08 02:37:49;;;;;;;24.73;20.98;;;;;;;31.96;53.41;101112.69;4802178;29;65926;-39
2021/04/08 02:40:22;;;;;;;28.05;22.48;;;;;;;32.09;52.92;101135.31;4799367;29;69841;-39
2021/04/08 02:42:52;;;;;;;27.52;21.45;;;;;;;32.14;53.18;101138.19;4795955;29;66485;-38
2021/04/08 02:45:22;;;;;;;27.77;20.73;;;;;;;32.18;53.39;101128.53;4795262;29;71006;-39
2021/04/08 02:47:52;;;;;;;25.67;20.52;;;;;;;32.17;52.95;101135.03;4776021;29;66004;-38
2021/04/08 02:50:22;;;;;;;29.98;21.70;;;;;;;32.13;53.18;101117.53;4797620;29;69519;-39
2021/04/08 02:53:02;;;;;;;27.90;21.05;;;;;;;32.23;52.65;101129.56;4792813;29;65376;-38
2021/04/08 02:55:50;;;;;;;25.65;21.23;;;;;;;32.19;52.90;101132.94;4791413;29;68967;-40
2021/04/08 02:58:24;;;;;;;29.67;21.00;;;;;;;32.23;52.66;101129.56;4795280;29;65632;-39
2021/04/08 03:01:00;;;;;;;26.88;20.48;;;;;;;32.24;52.36;101130.38;4808908;29;70728;-38
2021/04/08 03:03:36;;;;;;;27.55;20.20;;;;;;;32.30;52.38;101129.47;4798485;29;66024;-39
2021/04/08 03:06:12;;;;;;;22.55;19.52;;;;;;;32.32;52.79;101131.94;4790387;29;69566;-39
2021/04/08 03:08:44;;;;;;;29.45;22.00;;;;;;;32.19;52.66;101094.94;4795676;29;66375;-39
2021/04/08 03:11:16;;;;;;;27.98;21.00;;;;;;;32.36;52.43;101120.44;4790844;29;69626;-39
2021/04/08 03:13:50;;;;;;;25.83;20.08;;;;;;;32.40;52.54;101120.81;4793503;29;66036;-39
2021/04/08 03:16:23;;;;;;;24.63;20.53;;;;;;;32.43;52.41;101118.50;4802945;29;70221;-39
2021/04/08 03:18:56;;;;;;;21.33;19.23;;;;;;;32.44;52.32;101103.03;4794809;29;66832;-39
2021/04/08 03:21:27;;;;;;;26.90;20.50;;;;;;;32.47;52.45;101108.03;4804127;29;70008;-40
2021/04/08 03:23:59;;;;;;;22.30;19.55;;;;;;;32.46;51.88;101106.38;4804057;29;64941;-40
2021/04/08 03:26:31;;;;;;;31.40;19.77;;;;;;;32.52;52.02;101104.66;4794400;29;69975;-39
2021/04/08 03:29:01;;;;;;;26.15;19.98;;;;;;;32.53;52.04;101107.13;4794146;29;65693;-39
2021/04/08 03:31:31;;;;;;;26.10;19.45;;;;;;;32.57;51.96;101104.78;4793632;29;69977;-39
2021/04/08 03:34:02;;;;;;;23.17;19.92;;;;;;;32.57;51.77;101097.47;4793715;29;65069;-39
2021/04/08 03:36:36;;;;;;;32.25;19.77;;;;;;;32.61;51.76;101106.00;4795403;29;69201;-39
2021/04/08 03:39:08;;;;;;;22.60;19.77;;;;;;;32.64;52.08;101102.81;4798499;29;66762;-39
2021/04/08 03:41:41;;;;;;;23.40;19.15;;;;;;;32.65;51.55;101099.03;4797397;29;69260;-39
2021/04/08 03:44:14;;;;;;;29.63;19.27;;;;;;;32.63;51.53;101087.59;4797765;29;66636;-39
2021/04/08 03:46:47;;;;;;;22.27;19.58;;;;;;;32.70;51.81;101096.47;4797732;29;69115;-39
2021/04/08 03:49:22;;;;;;;26.98;18.88;;;;;;;32.72;51.67;101088.94;4794712;29;66998;-37
2021/04/08 03:51:54;;;;;;;21.70;19.00;;;;;;;32.70;51.63;101074.75;4800685;29;68901;-40
2021/04/08 03:54:27;;;;;;;23.02;18.98;;;;;;;32.80;51.37;101083.19;4813712;29;64825;-39
2021/04/08 03:57:01;;;;;;;24.20;18.95;;;;;;;32.80;51.26;101085.91;4798928;29;69768;-39
2021/04/08 03:59:34;;;;;;;21.70;18.90;;;;;;;32.68;51.70;101049.69;4800176;29;65201;-40
2021/04/08 04:02:03;;;;;;;25.60;19.83;;;;;;;32.83;51.16;101068.31;4796309;29;70113;-38
2021/04/08 04:04:34;;;;;;;22.25;18.80;;;;;;;32.85;51.42;101061.59;4792934;29;65350;-38
2021/04/08 04:07:05;;;;;;;21.48;19.38;;;;;;;32.85;51.29;101056.16;4799509;29;69404;-39
2021/04/08 04:09:36;;;;;;;23.33;18.42;;;;;;;32.89;51.04;101056.53;4790336;29;66070;-40
2021/04/08 04:12:06;;;;;;;22.27;19.80;;;;;;;32.90;50.99;101044.59;4793756;29;70462;-39
2021/04/08 04:14:39;;;;;;;22.17;19.17;;;;;;;32.90;51.26;101034.56;4794809;29;66129;-39
2021/04/08 04:17:30;;;;;;;21.92;19.33;;;;;;;32.91;50.77;101033.50;4809850;29;70034;-38
2021/04/08 04:20:05;;;;;;;21.70;19.42;;;;;;;32.89;51.07;101019.31;4798884;29;66504;-40
2021/04/08 04:22:43;;;;;;;28.55;20.23;;;;;;;32.97;50.95;101028.22;4797672;29;69946;-38
2021/04/08 04:25:14;;;;;;;25.08;19.27;;;;;;;32.98;50.71;101008.13;4800599;29;66301;-40
2021/04/08 04:27:43;;;;;;;21.60;19.25;;;;;;;32.92;51.08;101007.97;4802619;29;69287;-39
2021/04/08 04:30:18;;;;;;;21.08;19.00;;;;;;;32.99;50.95;101012.47;4801803;29;66747;-39
2021/04/08 04:32:47;;;;;;;20.83;18.70;;;;;;;33.00;50.84;101003.31;4793817;29;69768;-40
2021/04/08 04:35:17;;;;;;;20.77;18.73;;;;;;;33.03;50.94;101005.56;4795121;29;66223;-40
2021/04/08 04:37:48;;;;;;;24.10;19.33;;;;;;;33.02;50.94;100995.78;4805293;29;69075;-40
2021/04/08 04:40:21;;;;;;;21.10;18.80;;;;;;;33.04;50.78;100990.91;4811701;29;66246;-39
2021/04/08 04:42:51;;;;;;;27.23;19.77;;;;;;;33.07;50.33;100991.28;4789579;29;70264;-39
2021/04/08 04:45:20;;;;;;;21.38;19.15;;;;;;;33.09;50.52;100981.00;4793096;29;66285;-38
2021/04/08 04:47:50;;;;;;;20.40;18.23;;;;;;;33.09;50.49;100980.19;4795196;29;69120;-41
2021/04/08 04:50:22;;;;;;;21.70;19.23;;;;;;;33.06;50.72;100970.59;4805350;29;66054;-39
2021/04/08 04:52:52;;;;;;;24.92;18.85;;;;;;;33.12;50.86;100957.97;4800330;29;70104;-39
2021/04/08 04:55:21;;;;;;;30.10;19.20;;;;;;;33.15;50.46;100952.06;4795787;29;66244;-40
2021/04/08 04:57:51;;;;;;;25.35;18.98;;;;;;;33.10;50.35;100941.09;4791568;29;70074;-39
2021/04/08 05:00:21;;;;;;;24.67;19.67;;;;;;;33.12;50.24;100936.22;4790486;29;66036;-39
2021/04/08 05:02:51;;;;;;;21.27;19.20;;;;;;;33.15;50.57;100930.31;4806761;29;69592;-39
2021/04/08 05:05:23;;;;;;;21.10;18.90;;;;;;;33.17;50.15;100928.19;4793803;29;65291;-40
2021/04/08 05:07:52;;;;;;;20.73;18.50;;;;;;;33.19;50.61;100915.19;4810160;29;69604;-40
2021/04/08 05:10:22;;;;;;;21.65;18.35;;;;;;;33.20;50.54;100914.13;4798215;29;66823;-39
2021/04/08 05:12:51;;;;;;;19.63;17.63;;;;;;;33.22;50.21;100894.88;4796703;29;69896;-39
2021/04/08 05:15:21;;;;;;;21.70;19.23;;;;;;;33.19;50.31;100896.19;4790851;29;65151;-39
2021/04/08 05:18:10;;;;;;;21.25;19.05;;;;;;;33.24;50.41;100896.31;4796764;29;70102;-39
2021/04/08 05:20:39;;;;;;;22.17;19.92;;;;;;;33.19;50.13;100882.59;4800215;29;66562;-40
2021/04/08 05:23:09;;;;;;;22.58;18.92;;;;;;;33.24;50.28;100890.88;4802859;29;69897;-39
2021/04/08 05:25:39;;;;;;;21.88;18.63;;;;;;;33.25;49.97;100886.25;4801856;29;65287;-39
2021/04/08 05:28:09;;;;;;;26.15;20.13;;;;;;;33.30;50.09;100879.03;4800380;29;69660;-39
2021/04/08 05:30:38;;;;;;;23.60;18.73;;;;;;;33.33;50.00;100875.00;4801873;29;65944;-40
2021/04/08 05:33:08;;;;;;;22.70;19.17;;;;;;;33.31;50.02;100858.94;4799471;29;69972;-39
2021/04/08 05:35:38;;;;;;;20.85;18.05;;;;;;;33.32;50.25;100857.88;4801079;29;65998;-38
2021/04/08 05:38:08;;;;;;;20.40;18.52;;;;;;;33.34;50.22;100863.06;4793848;29;69094;-39
2021/04/08 05:40:40;;;;;;;22.20;18.25;;;;;;;33.34;50.00;100847.56;4793158;29;65737;-38
2021/04/08 05:43:09;;;;;;;21.00;18.85;;;;;;;33.34;50.17;100841.31;4799692;29;70053;-39
2021/04/08 05:45:39;;;;;;;20.02;17.90;;;;;;;33.36;49.73;100820.97;4799966;29;65152;-39
2021/04/08 05:48:08;;;;;;;22.27;19.02;;;;;;;33.34;50.26;100809.50;4798397;29;69883;-38
2021/04/08 05:50:38;;;;;;;21.27;19.00;;;;;;;33.37;50.08;100809.03;4784158;29;65297;-39
2021/04/08 05:53:08;;;;;;;23.27;18.48;;;;;;;33.38;50.28;100799.81;4796119;29;69250;-38
2021/04/08 05:55:37;;;;;;;20.98;18.55;;;;;;;33.41;49.73;100795.00;4799705;29;66069;-39
2021/04/08 05:58:07;;;;;;;20.85;18.67;;;;;;;33.42;50.00;100788.47;4794313;29;71649;-39
2021/04/08 06:00:36;;;;;;;23.50;19.58;;;;;;;33.41;50.20;100784.09;4796581;29;66013;-38
2021/04/08 06:03:06;;;;;;;23.50;20.33;;;;;;;33.44;50.04;100784.44;4797152;29;67643;-38
2021/04/08 06:05:36;;;;;;;20.95;18.67;;;;;;;33.43;49.93;100771.91;4793213;29;66953;-39
2021/04/08 06:08:08;;;;;;;22.70;18.63;;;;;;;33.47;49.73;100754.06;4801406;29;69853;-38
2021/04/08 06:10:38;;;;;;;21.98;19.50;;;;;;;33.49;49.84;100751.06;4798649;29;66289;-38
2021/04/08 06:13:10;;;;;;;22.27;18.13;;;;;;;33.49;49.97;100745.63;4796531;29;70043;-39
2021/04/08 06:15:40;;;;;;;22.20;18.67;;;;;;;33.48;50.16;100741.28;4795963;29;65611;-39
2021/04/08 06:18:10;;;;;;;23.17;18.83;;;;;;;33.49;49.86;100734.75;4792122;29;69239;-38
2021/04/08 06:20:42;;;;;;;26.17;19.55;;;;;;;33.50;49.52;100741.88;4812783;29;64417;-39
2021/04/08 06:23:12;;;;;;;20.17;18.15;;;;;;;33.52;50.09;100739.75;4798130;29;69869;-39
2021/04/08 06:25:42;;;;;;;20.42;18.30;;;;;;;33.48;49.86;100739.38;4795650;29;66364;-39
2021/04/08 06:28:12;;;;;;;21.58;18.55;;;;;;;33.55;49.42;100747.44;4797605;29;69063;-39
2021/04/08 06:30:46;;;;;;;21.65;19.45;;;;;;;33.58;49.62;100744.25;4799142;29;65159;-39
2021/04/08 06:33:29;;;;;;;20.88;18.65;;;;;;;33.56;49.99;100730.03;4796029;29;69624;-39
2021/04/08 06:35:59;;;;;;;20.20;18.08;;;;;;;33.51;49.89;100708.16;4798894;29;66189;-37
2021/04/08 06:38:32;;;;;;;20.58;18.83;;;;;;;33.53;49.58;100703.34;4792942;29;70657;-38
2021/04/08 06:41:01;;;;;;;20.38;18.13;;;;;;;33.55;49.67;100690.34;4797302;29;66015;-39
2021/04/08 06:43:35;;;;;;;20.25;18.17;;;;;;;33.54;49.77;100677.78;4810011;29;70134;-39
2021/04/08 06:46:09;;;;;;;20.58;18.52;;;;;;;33.56;49.84;100681.09;4794662;29;66266;-38
2021/04/08 06:48:53;;;;;;;21.25;19.15;;;;;;;33.58;49.79;100687.13;4797382;29;70042;-38
2021/04/08 06:51:23;;;;;;;20.50;18.63;;;;;;;33.57;49.64;100688.16;4801574;29;65783;-38
2021/04/08 06:53:53;;;;;;;21.20;19.05;;;;;;;33.52;49.78;100672.59;4799569;29;70538;-40
2021/04/08 06:56:23;;;;;;;20.40;18.50;;;;;;;33.51;49.55;100661.94;4792309;29;64880;-38
2021/04/08 06:58:53;;;;;;;21.70;19.50;;;;;;;33.63;49.65;100676.34;4800577;29;71535;-39
2021/04/08 07:01:36;;;;;;;21.67;18.73;;;;;;;33.62;49.56;100679.28;4800258;29;65520;-38
2021/04/08 07:04:06;;;;;;;20.95;18.92;;;;;;;33.62;49.63;100669.22;4792649;29;69665;-38
2021/04/08 07:06:35;;;;;;;21.08;19.10;;;;;;;33.59;49.62;100661.56;4799722;29;66141;-38
2021/04/08 07:09:09;;;;;;;21.88;19.73;;;;;;;33.48;49.57;100643.38;4798726;29;69618;-37
2021/04/08 07:11:40;;;;;;;21.67;19.15;;;;;;;33.59;49.52;100670.53;4799760;29;65945;-38
2021/04/08 07:14:11;;;;;;;24.33;20.02;;;;;;;33.46;49.79;100642.78;4796925;29;70684;-38
2021/04/08 07:16:44;;;;;;;26.93;21.27;;;;;;;33.57;49.89;100655.53;4796889;29;67507;-38
2021/04/08 07:19:13;;;;;;;23.60;20.25;;;;;;;33.58;49.76;100662.66;4799553;29;70052;-38
2021/04/08 07:21:43;;;;;;;25.35;20.60;;;;;;;33.57;49.77;100671.84;4803119;29;65260;-38
2021/04/08 07:24:20;;;;;;;23.77;20.50;;;;;;;33.43;49.72;100654.97;4795337;29;69640;-38
2021/04/08 07:27:00;;;;;;;25.02;22.27;;;;;;;33.43;49.85;100671.28;4797203;29;65963;-39
2021/04/08 07:29:41;;;;;;;24.25;20.73;;;;;;;33.52;49.96;100688.06;4803060;29;69859;-39
2021/04/08 07:32:15;;;;;;;27.47;21.40;;;;;;;33.45;49.99;100641.16;4801537;29;65415;-39
2021/04/08 07:34:49;;;;;;;23.55;21.15;;;;;;;33.55;49.90;100641.38;4797181;29;68806;-39
2021/04/08 07:37:58;;;;;;;26.58;22.52;;;;;;;33.56;49.88;100630.25;4803816;29;66354;-38
2021/04/08 07:40:28;;;;;;;26.38;21.48;;;;;;;33.61;49.97;100640.41;4801981;29;70038;-39
2021/04/08 07:43:14;;;;;;;26.33;22.58;;;;;;;33.55;49.99;100625.88;4800442;29;65916;-38
2021/04/08 07:45:43;;;;;;;26.00;21.05;;;;;;;33.56;49.92;100624.81;4796841;29;70036;-38
2021/04/08 07:48:13;;;;;;;23.55;21.08;;;;;;;33.62;49.84;100635.78;4801975;29;66214;-39
2021/04/08 07:50:58;;;;;;;32.70;22.27;;;;;;;33.48;49.78;100608.84;4797059;29;68562;-39
2021/04/08 07:53:27;;;;;;;26.98;22.27;;;;;;;33.63;49.72;100621.09;4794556;29;66322;-38
2021/04/08 07:55:56;;;;;;;25.40;21.20;;;;;;;33.66;49.78;100615.19;4799813;29;70068;-39
2021/04/08 07:58:26;;;;;;;24.33;21.73;;;;;;;33.67;49.83;100605.94;4802066;29;65981;-39
2021/04/08 08:00:55;;;;;;;24.38;21.88;;;;;;;33.68;50.03;100607.59;4797257;29;69191;-39
2021/04/08 08:03:29;;;;;;;25.17;21.90;;;;;;;33.56;49.92;100580.47;4801245;29;65221;-38
2021/04/08 08:06:02;;;;;;;24.08;21.65;;;;;;;33.65;49.87;100598.03;4800301;29;69555;-38
2021/04/08 08:08:43;;;;;;;24.67;22.08;;;;;;;33.54;49.94;100575.28;4815263;29;65447;-39
2021/04/08 08:11:15;;;;;;;24.55;21.88;;;;;;;33.65;49.71;100580.88;4796208;29;69903;-39
2021/04/08 08:13:49;;;;;;;25.80;23.10;;;;;;;33.58;50.03;100570.19;4800623;29;66238;-39
2021/04/08 08:16:26;;;;;;;25.45;22.65;;;;;;;33.59;49.94;100566.38;4796716;29;69875;-38
2021/04/08 08:18:59;;;;;;;27.17;23.35;;;;;;;33.71;49.86;100586.19;4797427;29;65988;-38
2021/04/08 08:21:36;;;;;;;24.63;21.20;;;;;;;33.74;49.96;100595.72;4797422;29;70065;-38
2021/04/08 08:24:14;;;;;;;24.95;22.30;;;;;;;33.72;50.09;100592.44;4799411;29;66009;-38
2021/04/08 08:26:48;;;;;;;26.13;21.75;;;;;;;33.67;50.10;100576.84;4798800;29;70389;-38
2021/04/08 08:29:21;;;;;;;25.80;22.88;;;;;;;33.65;49.96;100570.81;4799356;29;66306;-38
2021/04/08 08:31:59;;;;;;;31.27;22.25;;;;;;;33.75;49.74;100581.88;4799872;29;69227;-38
2021/04/08 08:34:40;;;;;;;27.98;22.92;;;;;;;33.76;49.95;100582.69;4793671;29;66367;-37
2021/04/08 08:37:13;;;;;;;26.27;23.52;;;;;;;33.80;49.86;100579.25;4792153;29;69159;-37
2021/04/08 08:39:44;;;;;;;29.83;22.50;;;;;;;33.79;49.98;100569.44;4795381;29;65975;-38
2021/04/08 08:42:19;;;;;;;26.13;22.50;;;;;;;33.66;49.77;100553.44;4798893;29;69121;-38
2021/04/08 08:44:49;;;;;;;29.13;22.98;;;;;;;33.81;49.99;100580.88;4801821;29;65366;-38
2021/04/08 08:47:35;;;;;;;24.58;21.98;;;;;;;33.68;50.05;100559.44;4796230;29;69958;-38
2021/04/08 08:50:11;;;;;;;24.45;21.85;;;;;;;33.77;49.89;100579.75;4789966;29;66455;-38
2021/04/08 08:52:43;;;;;;;25.60;21.85;;;;;;;33.76;50.20;100574.53;4795126;29;69423;-38
2021/04/08 08:55:17;;;;;;;26.60;21.27;;;;;;;33.79;49.92;100585.78;4804382;29;66032;-38
2021/04/08 08:57:51;;;;;;;24.70;22.05;;;;;;;33.83;50.04;100588.00;4800099;29;69782;-39
2021/04/08 09:00:23;;;;;;;23.17;20.63;;;;;;;33.84;50.22;100600.50;4794550;29;65246;-38
2021/04/08 09:03:12;;;;;;;27.48;21.90;;;;;;;33.76;50.19;100597.13;4796272;29;69623;-39
2021/04/08 09:05:42;;;;;;;24.35;21.83;;;;;;;33.84;49.96;100608.69;4809720;29;65090;-38
2021/04/08 09:08:35;;;;;;;34.85;21.40;;;;;;;33.75;50.18;100609.09;4795408;29;68566;-39
2021/04/08 09:11:05;;;;;;;27.33;21.55;;;;;;;33.81;50.34;100624.41;4799975;29;66036;-38
2021/04/08 09:13:35;;;;;;;25.90;21.30;;;;;;;33.78;50.29;100616.75;4800471;29;70855;-40
2021/04/08 09:16:15;;;;;;;24.83;22.13;;;;;;;33.77;50.23;100612.38;4806305;29;66046;-39
2021/04/08 09:19:00;;;;;;;25.45;21.10;;;;;;;33.72;50.37;100625.91;4795382;29;69677;-39
2021/04/08 09:21:51;;;;;;;32.80;22.35;;;;;;;33.75;50.73;100630.84;4802670;29;65393;-39
2021/04/08 09:24:43;;;;;;;24.10;20.90;;;;;;;33.85;50.46;100632.09;4801294;29;70011;-39
2021/04/08 09:27:21;;;;;;;23.92;21.30;;;;;;;33.79;50.25;100632.03;4796111;29;66087;-39
2021/04/08 09:29:58;;;;;;;35.13;21.63;;;;;;;33.73;50.13;100616.66;4803734;29;68948;-38
2021/04/08 09:32:36;;;;;;;25.27;21.17;;;;;;;33.78;50.30;100637.69;4797592;29;65785;-38
2021/04/08 09:35:10;;;;;;;25.75;20.40;;;;;;;33.78;50.17;100640.41;4791311;29;69159;-39
2021/04/08 09:37:51;;;;;;;30.88;21.08;;;;;;;33.78;50.46;100635.78;4802618;29;65428;-39
2021/04/08 09:40:22;;;;;;;24.38;20.65;;;;;;;33.83;50.43;100639.69;4800796;29;69826;-39
2021/04/08 09:42:58;;;;;;;27.48;21.20;;;;;;;33.77;50.25;100634.16;4802370;29;65162;-38
2021/04/08 09:45:29;;;;;;;26.02;20.95;;;;;;;33.82;50.29;100638.84;4798469;29;68897;-38
2021/04/08 09:48:08;;;;;;;23.08;20.73;;;;;;;33.77;50.17;100636.88;4804619;29;65790;-37
2021/04/08 09:50:57;;;;;;;23.15;20.55;;;;;;;33.70;50.34;100627.22;4804956;29;69727;-39
2021/04/08 09:53:50;;;;;;;23.02;20.58;;;;;;;33.73;50.36;100649.31;4800365;29;65796;-39
2021/04/08 09:56:39;;;;;;;25.75;19.90;;;;;;;33.77;50.42;100644.22;4801591;29;70332;-37
2021/04/08 09:59:09;;;;;;;29.70;21.48;;;;;;;33.78;50.56;100633.06;4796781;29;66167;-39
2021/04/08 10:01:39;;;;;;;23.00;20.50;;;;;;;33.77;50.46;100638.78;4801947;29;69982;-38
2021/04/08 10:04:18;;;;;;;26.40;19.55;;;;;;;33.67;50.39;100628.53;4802996;29;65507;-39
2021/04/08 10:06:59;;;;;;;24.55;20.27;;;;;;;33.70;50.73;100638.91;4798673;29;69092;-38
2021/04/08 10:09:29;;;;;;;25.03;20.90;;;;;;;33.78;50.48;100646.69;4801593;29;66090;-40
2021/04/08 10:12:01;;;;;;;21.98;19.15;;;;;;;33.77;50.98;100645.03;4805750;29;70078;-38
2021/04/08 10:14:33;;;;;;;25.08;18.92;;;;;;;33.63;51.52;100654.59;4803610;29;66715;-38
2021/04/08 10:17:11;;;;;;;44.95;19.63;;;;;;;33.12;53.68;100653.56;4807399;29;69735;-39
2021/04/08 10:19:43;;;;;;;37.33;21.33;;;;;;;32.88;53.78;100659.03;4799630;29;66042;-39
2021/04/08 10:22:13;;;;;;;57.58;20.35;;;;;;;32.79;53.81;100654.19;4800209;29;70330;-39
2021/04/08 10:24:44;;;;;;;38.55;21.55;;;;;;;32.56;54.66;100652.34;4812427;29;65280;-39
2021/04/08 10:27:26;;;;;;;36.83;20.58;;;;;;;32.44;55.73;100663.19;4803050;29;69502;-38
2021/04/08 10:29:56;;;;;;;33.08;21.42;;;;;;;32.38;55.07;100673.09;4798944;29;66078;-38
2021/04/08 10:32:34;;;;;;;34.97;20.55;;;;;;;32.20;55.63;100651.47;4801573;29;70198;-40
2021/04/08 10:35:29;;;;;;;37.05;22.35;;;;;;;32.20;55.58;100674.00;4794647;29;65840;-39
2021/04/08 10:38:04;;;;;;;36.45;22.50;;;;;;;32.26;55.43;100672.25;4797481;29;69975;-39
2021/04/08 10:40:35;;;;;;;32.33;23.38;;;;;;;32.05;54.80;100638.38;4805263;29;66398;-38
2021/04/08 10:43:16;;;;;;;47.75;25.48;;;;;;;32.17;55.96;100679.91;4795627;29;69670;-38
2021/04/08 10:45:58;;;;;;;57.22;23.73;;;;;;;32.09;56.17;100676.72;4795371;29;66271;-39
2021/04/08 10:48:30;;;;;;;33.35;23.52;;;;;;;32.12;55.87;100678.97;4798746;29;69402;-38
2021/04/08 10:51:13;;;;;;;38.92;24.65;;;;;;;32.05;56.80;100670.94;4791681;29;67447;-38
2021/04/08 10:53:46;;;;;;;40.78;24.23;;;;;;;32.09;56.85;100674.00;4799035;29;69518;-39
2021/04/08 10:56:17;;;;;;;45.03;23.42;;;;;;;32.08;55.95;100658.78;4794044;29;66604;-38
2021/04/08 10:58:47;;;;;;;35.83;23.98;;;;;;;32.07;56.46;100662.53;4797435;29;69201;-38
2021/04/08 11:01:29;;;;;;;41.33;22.90;;;;;;;31.93;57.86;100654.66;4795284;29;65406;-38
2021/04/08 11:04:07;;;;;;;42.30;23.63;;;;;;;31.96;57.88;100662.31;4794803;29;69122;-38
2021/04/08 11:06:37;;;;;;;37.00;23.90;;;;;;;31.93;56.96;100660.06;4796155;29;65076;-38
2021/04/08 11:09:06;;;;;;;43.90;25.55;;;;;;;31.90;57.45;100674.06;4797142;29;69869;-39
2021/04/08 11:11:39;;;;;;;50.00;26.65;;;;;;;31.86;57.88;100667.44;4814833;29;66030;-39
2021/04/08 11:14:20;;;;;;;50.80;26.42;;;;;;;32.05;57.81;100671.75;4795428;29;69769;-38
2021/04/08 11:16:51;;;;;;;41.00;24.48;;;;;;;32.24;57.00;100666.25;4802046;29;66633;-38
2021/04/08 11:19:22;;;;;;;40.55;23.23;;;;;;;32.53;56.41;100688.13;4796822;29;69810;-38
2021/04/08 11:21:52;;;;;;;48.55;25.17;;;;;;;32.66;55.75;100691.41;4791971;29;66345;-38
2021/04/08 11:24:22;;;;;;;40.33;24.98;;;;;;;32.78;55.77;100683.25;4798897;29;70137;-38
2021/04/08 11:26:53;;;;;;;45.30;25.15;;;;;;;32.85;55.62;100681.25;4800662;29;66330;-39
2021/04/08 11:29:28;;;;;;;49.47;25.50;;;;;;;32.88;55.46;100679.94;4796403;29;70202;-39
2021/04/08 11:32:03;;;;;;;43.13;26.83;;;;;;;33.01;55.52;100689.75;4796665;29;66128;-39
2021/04/08 11:34:55;;;;;;;45.45;25.35;;;;;;;32.98;55.30;100673.91;4801581;29;68130;-39
2021/04/08 11:37:33;;;;;;;;;;;;;;;33.15;55.49;100702.00;4798673;29;65455;-39
2021/04/08 11:40:06;;;;;;;49.53;25.50;;;;;;;33.22;55.51;100697.25;4794744;29;70190;-39